createdAt,value
2019-02-18T00:01:16.954Z,-0.95
2019-02-18T00:03:42.778Z,-0.87
2019-02-18T00:06:08.713Z,-0.88
2019-02-18T00:08:34.658Z,-0.98
2019-02-18T00:11:00.480Z,-0.90
2019-02-18T00:13:26.312Z,-0.91
2019-02-18T00:15:52.149Z,-0.82
2019-02-18T00:18:17.968Z,-0.96
2019-02-18T00:20:43.805Z,-1.11
2019-02-18T00:23:09.613Z,-1.09
2019-02-18T00:25:35.452Z,-1.17
2019-02-18T00:28:01.249Z,-1.18
2019-02-18T00:30:27.080Z,-1.23
2019-02-18T00:32:52.922Z,-1.33
2019-02-18T00:35:18.779Z,-1.37
2019-02-18T00:37:44.612Z,-1.34
2019-02-18T00:40:10.553Z,-1.31
2019-02-18T00:42:36.388Z,-1.39
2019-02-18T00:45:43.865Z,-1.43
2019-02-18T00:48:09.701Z,-1.33
2019-02-18T00:50:35.540Z,-1.44
2019-02-18T00:53:01.371Z,-1.52
2019-02-18T00:55:27.220Z,-1.51
2019-02-18T00:57:53.061Z,-1.50
2019-02-18T01:00:18.976Z,-1.45
2019-02-18T01:02:44.910Z,-1.59
2019-02-18T01:05:10.924Z,-1.60
2019-02-18T01:07:36.746Z,-1.67
2019-02-18T01:10:44.219Z,-1.65
2019-02-18T01:13:10.049Z,-1.69
2019-02-18T01:15:35.878Z,-1.78
2019-02-18T01:18:01.727Z,-1.76
2019-02-18T01:20:27.545Z,-1.72
2019-02-18T01:22:53.499Z,-1.78
2019-02-18T01:25:19.317Z,-1.82
2019-02-18T01:27:45.143Z,-1.84
2019-02-18T01:30:52.611Z,-1.82
2019-02-18T01:33:18.543Z,-1.84
2019-02-18T01:35:44.365Z,-1.72
2019-02-18T01:38:10.196Z,-1.80
2019-02-18T01:40:36.024Z,-1.77
2019-02-18T01:43:01.954Z,-1.81
2019-02-18T01:45:27.759Z,-1.93
2019-02-18T01:47:53.592Z,-1.92
2019-02-18T01:50:19.441Z,-2.02
2019-02-18T01:52:45.290Z,-2.01
2019-02-18T01:55:52.773Z,-2.21
2019-02-18T01:58:18.625Z,-2.17
2019-02-18T02:00:44.633Z,-2.30
2019-02-18T02:03:10.410Z,-2.25
2019-02-18T02:05:36.258Z,-2.32
2019-02-18T02:08:02.187Z,-2.29
2019-02-18T02:10:28.030Z,-2.30
2019-02-18T02:13:35.502Z,-2.28
2019-02-18T02:16:42.995Z,-2.24
2019-02-18T02:19:08.830Z,-2.48
2019-02-18T02:21:34.776Z,-2.52
2019-02-18T02:24:00.698Z,-2.58
2019-02-18T02:26:26.541Z,-2.56
2019-02-18T02:28:52.362Z,-2.39
2019-02-18T02:31:18.199Z,-2.44
2019-02-18T02:33:44.011Z,-2.40
2019-02-18T02:36:09.842Z,-2.40
2019-02-18T02:38:35.671Z,-2.47
2019-02-18T02:41:01.504Z,-2.45
2019-02-18T02:43:27.355Z,-2.58
2019-02-18T02:45:53.261Z,-2.92
2019-02-18T02:48:19.110Z,-3.03
2019-02-18T02:50:45.003Z,-3.10
2019-02-18T02:53:10.887Z,-3.16
2019-02-18T02:55:36.744Z,-2.92
2019-02-18T02:58:02.577Z,-2.92
2019-02-18T03:00:28.395Z,-2.86
2019-02-18T03:02:54.262Z,-2.76
2019-02-18T03:05:20.155Z,-2.57
2019-02-18T03:07:46.194Z,-2.58
2019-02-18T03:10:53.665Z,-2.65
2019-02-18T03:13:19.517Z,-2.70
2019-02-18T03:15:45.430Z,-2.76
2019-02-18T03:18:11.279Z,-2.66
2019-02-18T03:20:37.106Z,-2.62
2019-02-18T03:23:03.047Z,-2.55
2019-02-18T03:26:10.498Z,-2.43
2019-02-18T03:29:16.091Z,-2.41
2019-02-18T03:31:41.922Z,-2.51
2019-02-18T03:34:49.398Z,-2.71
2019-02-18T03:37:15.327Z,-2.72
2019-02-18T03:39:41.155Z,-2.86
2019-02-18T03:42:06.982Z,-2.88
2019-02-18T03:44:32.944Z,-2.92
2019-02-18T03:46:58.768Z,-2.95
2019-02-18T03:49:24.705Z,-2.90
2019-02-18T03:51:50.902Z,-2.94
2019-02-18T03:54:16.832Z,-3.08
2019-02-18T03:56:42.775Z,-3.07
2019-02-18T03:59:08.592Z,-3.01
2019-02-18T04:01:34.427Z,-3.08
2019-02-18T04:04:00.250Z,-3.03
2019-02-18T04:06:26.174Z,-3.05
2019-02-18T04:08:51.994Z,-3.11
2019-02-18T04:11:17.840Z,-3.11
2019-02-18T04:13:43.783Z,-3.05
2019-02-18T04:16:09.599Z,-3.12
2019-02-18T04:18:35.419Z,-3.00
2019-02-18T04:21:01.246Z,-3.19
2019-02-18T04:23:27.063Z,-3.08
2019-02-18T04:25:52.887Z,-3.29
2019-02-18T04:28:18.720Z,-3.27
2019-02-18T04:30:44.966Z,-3.35
2019-02-18T04:33:10.797Z,-3.36
2019-02-18T04:35:36.632Z,-3.38
2019-02-18T04:38:02.531Z,-3.28
2019-02-18T04:40:28.310Z,-3.26
2019-02-18T04:42:54.157Z,-3.30
2019-02-18T04:45:20.001Z,-3.30
2019-02-18T04:47:45.831Z,-3.40
2019-02-18T04:50:11.755Z,-3.49
2019-02-18T04:52:37.621Z,-3.54
2019-02-18T04:55:45.106Z,-3.79
2019-02-18T04:58:11.037Z,-3.45
2019-02-18T05:00:36.855Z,-3.50
2019-02-18T05:03:02.700Z,-3.65
2019-02-18T05:05:28.626Z,-3.75
2019-02-18T05:07:54.457Z,-3.83
2019-02-18T05:10:20.280Z,-3.66
2019-02-18T05:12:46.121Z,-3.69
2019-02-18T05:15:53.617Z,-3.74
2019-02-18T05:18:19.541Z,-3.72
2019-02-18T05:20:45.382Z,-3.79
2019-02-18T05:23:11.198Z,-3.64
2019-02-18T05:25:37.043Z,-3.43
2019-02-18T05:28:03.085Z,-3.40
2019-02-18T05:30:29.652Z,-3.54
2019-02-18T05:32:56.877Z,-3.70
2019-02-18T05:35:22.795Z,-3.85
2019-02-18T05:37:48.631Z,-3.76
2019-02-18T05:40:14.500Z,-3.89
2019-02-18T05:42:40.425Z,-4.28
2019-02-18T05:45:47.920Z,-4.29
2019-02-18T05:48:13.746Z,-4.18
2019-02-18T05:50:39.589Z,-4.01
2019-02-18T05:53:05.515Z,-4.02
2019-02-18T05:55:31.368Z,-3.93
2019-02-18T05:57:57.170Z,-3.89
2019-02-18T06:00:22.995Z,-3.86
2019-02-18T06:02:48.846Z,-4.22
2019-02-18T06:05:14.742Z,-4.38
2019-02-18T06:07:40.628Z,-4.30
2019-02-18T06:10:48.109Z,-4.31
2019-02-18T06:13:13.955Z,-4.08
2019-02-18T06:15:39.861Z,-4.03
2019-02-18T06:18:05.703Z,-4.00
2019-02-18T06:20:31.527Z,-4.13
2019-02-18T06:22:57.383Z,-4.07
2019-02-18T06:25:23.221Z,-3.91
2019-02-18T06:27:51.492Z,-4.01
2019-02-18T06:30:16.775Z,-4.07
2019-02-18T06:32:42.587Z,-4.06
2019-02-18T06:35:08.528Z,-3.94
2019-02-18T06:37:34.464Z,-3.96
2019-02-18T06:40:00.354Z,-4.07
2019-02-18T06:42:26.231Z,-3.99
2019-02-18T06:47:29.787Z,-4.05
2019-02-18T06:49:55.621Z,-4.02
2019-02-18T06:52:21.430Z,-4.04
2019-02-18T06:54:47.285Z,-4.06
2019-02-18T06:57:32.990Z,-3.95
2019-02-18T06:59:58.820Z,-3.88
2019-02-18T07:02:44.533Z,-3.92
2019-02-18T07:05:30.259Z,-4.04
2019-02-18T07:08:15.961Z,-3.98
2019-02-18T07:13:29.340Z,-3.78
2019-02-18T07:15:55.151Z,-3.64
2019-02-18T07:18:20.970Z,-3.52
2019-02-18T07:20:46.783Z,-3.46
2019-02-18T07:23:12.615Z,-3.47
2019-02-18T07:25:38.426Z,-3.47
2019-02-18T07:28:04.269Z,-3.35
2019-02-18T07:30:30.080Z,-3.32
2019-02-18T07:32:55.896Z,-3.27
2019-02-18T07:35:21.846Z,-3.19
2019-02-18T07:37:47.663Z,-3.13
2019-02-18T07:40:13.492Z,-3.02
2019-02-18T07:45:11.053Z,-2.91
2019-02-18T07:47:36.919Z,-2.82
2019-02-18T07:50:44.404Z,-2.82
2019-02-18T07:53:10.232Z,-2.77
2019-02-18T07:55:36.069Z,-2.71
2019-02-18T07:58:01.917Z,-2.61
2019-02-18T08:00:27.757Z,-2.54
2019-02-18T08:02:53.673Z,-2.44
2019-02-18T08:05:19.503Z,-2.40
2019-02-18T08:07:45.409Z,-2.33
2019-02-18T08:10:12.274Z,-2.22
2019-02-18T08:12:39.079Z,-2.10
2019-02-18T08:15:46.576Z,-2.05
2019-02-18T08:18:12.490Z,-1.92
2019-02-18T08:20:38.299Z,-1.80
2019-02-18T08:23:04.121Z,-1.70
2019-02-18T08:25:30.074Z,-1.50
2019-02-18T08:27:55.913Z,-1.30
2019-02-18T08:30:21.730Z,-1.18
2019-02-18T08:32:47.552Z,-1.09
2019-02-18T08:35:13.387Z,-0.91
2019-02-18T08:37:39.218Z,-0.88
2019-02-18T08:40:46.719Z,-0.76
2019-02-18T08:43:12.618Z,-0.60
2019-02-18T08:45:38.431Z,-0.26
2019-02-18T08:48:04.346Z,-0.24
2019-02-18T08:50:30.170Z,-0.18
2019-02-18T08:52:56.016Z,0.06
2019-02-18T08:55:21.968Z,0.41
2019-02-18T08:57:47.876Z,0.78
2019-02-18T09:01:02.194Z,1.00
2019-02-18T09:03:23.174Z,1.31
2019-02-18T09:05:48.995Z,1.53
2019-02-18T09:08:14.948Z,1.61
2019-02-18T09:10:40.897Z,1.76
2019-02-18T09:13:06.717Z,1.84
2019-02-18T09:15:32.536Z,1.92
2019-02-18T09:17:58.378Z,1.95
2019-02-18T09:20:25.595Z,2.07
2019-02-18T09:23:11.943Z,2.08
2019-02-18T09:28:25.222Z,2.44
2019-02-18T09:33:38.621Z,2.65
2019-02-18T09:36:04.549Z,2.84
2019-02-18T09:38:30.381Z,2.81
2019-02-18T09:40:56.190Z,2.76
2019-02-18T09:43:22.003Z,2.91
2019-02-18T09:45:47.857Z,2.90
2019-02-18T09:48:13.790Z,3.10
2019-02-18T09:50:39.715Z,3.14
2019-02-18T09:53:05.643Z,3.35
2019-02-18T09:55:31.494Z,3.45
2019-02-18T09:57:57.390Z,3.72
2019-02-18T10:00:23.265Z,3.84
2019-02-18T10:02:49.099Z,4.12
2019-02-18T10:05:15.043Z,4.13
2019-02-18T10:07:40.867Z,4.08
2019-02-18T10:10:55.321Z,4.20
2019-02-18T10:13:16.200Z,4.36
2019-02-18T10:15:42.036Z,4.28
2019-02-18T10:18:07.846Z,4.41
2019-02-18T10:20:33.669Z,3.82
2019-02-18T10:22:59.507Z,4.54
2019-02-18T10:25:25.359Z,4.88
2019-02-18T10:27:51.175Z,4.91
2019-02-18T10:30:17.109Z,4.93
2019-02-18T10:32:42.947Z,4.92
2019-02-18T10:35:28.642Z,4.95
2019-02-18T10:37:55.297Z,5.16
2019-02-18T10:40:22.323Z,5.25
2019-02-18T10:42:48.264Z,5.42
2019-02-18T10:45:14.179Z,5.51
2019-02-18T10:47:40.031Z,5.66
2019-02-18T10:50:47.508Z,5.68
2019-02-18T10:53:13.350Z,5.82
2019-02-18T10:55:39.166Z,6.00
2019-02-18T10:58:05.013Z,6.14
2019-02-18T11:00:31.025Z,6.08
2019-02-18T11:02:56.876Z,6.22
2019-02-18T11:05:22.808Z,6.31
2019-02-18T11:07:48.635Z,6.52
2019-02-18T11:10:56.112Z,6.65
2019-02-18T11:13:22.068Z,6.58
2019-02-18T11:15:47.886Z,6.79
2019-02-18T11:18:13.723Z,6.89
2019-02-18T11:20:39.532Z,6.96
2019-02-18T11:23:05.363Z,6.84
2019-02-18T11:25:31.197Z,7.04
2019-02-18T11:28:17.321Z,7.50
2019-02-18T11:30:43.157Z,7.50
2019-02-18T11:33:08.993Z,7.78
2019-02-18T11:35:34.825Z,7.82
2019-02-18T11:38:00.662Z,7.85
2019-02-18T11:40:26.478Z,7.95
2019-02-18T11:42:54.320Z,8.00
2019-02-18T11:45:20.239Z,8.03
2019-02-18T11:47:46.068Z,8.09
2019-02-18T11:50:53.557Z,8.41
2019-02-18T11:53:19.418Z,9.42
2019-02-18T11:55:45.421Z,9.42
2019-02-18T11:58:11.346Z,9.21
2019-02-18T12:00:37.189Z,8.95
2019-02-18T12:03:08.631Z,9.23
2019-02-18T12:05:30.849Z,9.66
2019-02-18T12:07:56.681Z,10.07
2019-02-18T12:10:22.715Z,10.20
2019-02-18T12:12:48.537Z,10.39
2019-02-18T12:15:56.016Z,10.02
2019-02-18T12:18:22.328Z,10.57
2019-02-18T12:20:48.267Z,10.19
2019-02-18T12:23:14.102Z,10.10
2019-02-18T12:25:40.109Z,10.75
2019-02-18T12:28:06.124Z,11.19
2019-02-18T12:30:32.590Z,11.14
2019-02-18T12:32:59.890Z,11.78
2019-02-18T12:35:31.060Z,12.51
2019-02-18T12:37:55.580Z,12.81
2019-02-18T12:40:21.276Z,12.26
2019-02-18T12:42:47.113Z,12.43
2019-02-18T12:45:12.956Z,13.00
2019-02-18T12:47:38.895Z,13.69
2019-02-18T12:50:46.377Z,13.79
2019-02-18T12:53:12.218Z,14.02
2019-02-18T12:55:38.251Z,13.82
2019-02-18T12:58:04.290Z,13.82
2019-02-18T13:00:30.217Z,13.72
2019-02-18T13:02:56.141Z,14.63
2019-02-18T13:05:21.941Z,14.96
2019-02-18T13:07:47.883Z,15.11
2019-02-18T13:10:55.353Z,14.96
2019-02-18T13:13:21.344Z,14.71
2019-02-18T13:15:47.162Z,15.47
2019-02-18T13:18:13.000Z,15.21
2019-02-18T13:20:38.823Z,14.88
2019-02-18T13:23:06.665Z,16.04
2019-02-18T13:25:32.585Z,16.49
2019-02-18T13:27:58.402Z,16.70
2019-02-18T13:30:24.330Z,17.02
2019-02-18T13:32:50.146Z,17.23
2019-02-18T13:35:15.967Z,17.27
2019-02-18T13:37:41.983Z,17.56
2019-02-18T13:43:02.109Z,17.25
2019-02-18T13:45:27.942Z,16.37
2019-02-18T13:47:53.875Z,16.51
2019-02-18T13:50:19.702Z,16.88
2019-02-18T13:52:45.530Z,17.57
2019-02-18T13:55:53.026Z,18.09
2019-02-18T13:58:18.926Z,18.13
2019-02-18T14:00:44.850Z,17.91
2019-02-18T14:03:10.793Z,17.64
2019-02-18T14:05:36.797Z,17.49
2019-02-18T14:08:02.602Z,17.69
2019-02-18T14:10:28.562Z,17.81
2019-02-18T14:12:54.476Z,18.00
2019-02-18T14:18:14.521Z,18.19
2019-02-18T14:20:40.365Z,18.85
2019-02-18T14:23:06.289Z,19.08
2019-02-18T14:25:32.127Z,19.03
2019-02-18T14:27:57.967Z,19.40
2019-02-18T14:30:31.455Z,19.41
2019-02-18T14:32:57.303Z,19.09
2019-02-18T14:35:23.126Z,19.59
2019-02-18T14:37:50.879Z,19.37
2019-02-18T14:43:04.154Z,19.89
2019-02-18T14:45:30.006Z,19.77
2019-02-18T14:47:55.858Z,19.44
2019-02-18T14:50:21.806Z,19.39
2019-02-18T14:52:49.538Z,19.46
2019-02-18T14:55:15.366Z,19.90
2019-02-18T14:57:41.309Z,19.63
2019-02-18T15:00:27.006Z,19.51
2019-02-18T15:03:34.472Z,19.66
2019-02-18T15:06:00.428Z,19.45
2019-02-18T15:08:26.319Z,19.24
2019-02-18T15:10:52.149Z,19.44
2019-02-18T15:13:17.996Z,19.68
2019-02-18T15:15:45.732Z,19.59
2019-02-18T15:18:11.588Z,19.62
2019-02-18T15:20:37.423Z,19.20
2019-02-18T15:23:03.357Z,19.16
2019-02-18T15:25:29.297Z,19.30
2019-02-18T15:27:55.124Z,19.16
2019-02-18T15:30:21.064Z,19.29
2019-02-18T15:32:46.983Z,19.35
2019-02-18T15:35:14.727Z,19.31
2019-02-18T15:37:40.544Z,18.39
2019-02-18T15:40:48.037Z,18.24
2019-02-18T15:43:14.347Z,18.29
2019-02-18T15:45:40.320Z,17.66
2019-02-18T15:48:06.356Z,16.52
2019-02-18T15:50:32.195Z,15.53
2019-02-18T15:52:58.030Z,14.92
2019-02-18T15:55:23.958Z,14.65
2019-02-18T15:57:49.771Z,14.30
2019-02-18T16:00:35.471Z,13.40
2019-02-18T16:03:01.298Z,12.95
2019-02-18T16:05:27.479Z,12.45
2019-02-18T16:07:53.366Z,12.22
2019-02-18T16:10:19.209Z,12.04
2019-02-18T16:12:50.506Z,11.96
2019-02-18T16:15:12.763Z,11.91
2019-02-18T16:17:40.527Z,11.84
2019-02-18T16:20:26.233Z,11.66
2019-02-18T16:22:52.065Z,11.52
2019-02-18T16:25:37.769Z,11.41
2019-02-18T16:28:03.911Z,11.24
2019-02-18T16:30:29.727Z,11.00
2019-02-18T16:32:55.670Z,10.75
2019-02-18T16:35:21.483Z,10.12
2019-02-18T16:37:47.340Z,10.00
2019-02-18T16:40:54.799Z,9.84
2019-02-18T16:43:21.295Z,9.60
2019-02-18T16:45:47.143Z,9.47
2019-02-18T16:48:14.918Z,9.35
2019-02-18T16:50:40.752Z,9.21
2019-02-18T16:53:06.621Z,9.03
2019-02-18T16:55:52.520Z,8.61
2019-02-18T16:58:18.370Z,8.61
2019-02-18T17:00:44.196Z,8.51
2019-02-18T17:03:10.225Z,8.33
2019-02-18T17:05:55.943Z,8.03
2019-02-18T17:08:21.783Z,8.03
2019-02-18T17:10:47.601Z,7.70
2019-02-18T17:13:13.445Z,7.59
2019-02-18T17:15:39.277Z,7.44
2019-02-18T17:18:05.138Z,7.32
2019-02-18T17:20:30.987Z,7.13
2019-02-18T17:22:56.826Z,7.04
2019-02-18T17:25:44.480Z,6.86
2019-02-18T17:28:10.474Z,6.86
2019-02-18T17:30:36.324Z,6.80
2019-02-18T17:33:02.164Z,6.69
2019-02-18T17:35:28.026Z,6.52
2019-02-18T17:37:53.867Z,6.44
2019-02-18T17:40:41.500Z,6.34
2019-02-18T17:43:07.350Z,6.34
2019-02-18T17:45:33.196Z,6.27
2019-02-18T17:47:59.026Z,6.16
2019-02-18T17:50:24.905Z,6.11
2019-02-18T17:52:50.852Z,5.98
2019-02-18T17:55:18.717Z,5.85
2019-02-18T17:57:44.582Z,5.76
2019-02-18T18:00:52.078Z,5.66
2019-02-18T18:03:38.094Z,5.31
2019-02-18T18:06:23.931Z,5.18
2019-02-18T18:08:49.784Z,5.18
2019-02-18T18:11:15.643Z,4.99
2019-02-18T18:13:43.384Z,4.88
2019-02-18T18:16:09.323Z,4.98
2019-02-18T18:18:35.324Z,4.95
2019-02-18T18:21:01.219Z,4.85
2019-02-18T18:23:27.052Z,4.51
2019-02-18T18:25:52.996Z,4.35
2019-02-18T18:28:18.854Z,4.32
2019-02-18T18:30:44.700Z,4.26
2019-02-18T18:33:10.656Z,3.98
2019-02-18T18:35:36.637Z,3.82
2019-02-18T18:38:02.620Z,3.82
2019-02-18T18:40:28.580Z,3.81
2019-02-18T18:42:54.424Z,3.78
2019-02-18T18:45:20.259Z,3.80
2019-02-18T18:47:46.096Z,3.77
2019-02-18T18:50:53.606Z,3.78
2019-02-18T18:53:19.673Z,3.61
2019-02-18T18:56:05.390Z,3.50
2019-02-18T18:58:51.215Z,3.39
2019-02-18T19:01:17.096Z,3.39
2019-02-18T19:03:43.065Z,3.41
2019-02-18T19:06:09.019Z,3.36
2019-02-18T19:08:34.999Z,3.11
2019-02-18T19:11:02.839Z,3.11
2019-02-18T19:13:28.699Z,3.14
2019-02-18T19:15:54.583Z,2.99
2019-02-18T19:18:20.419Z,2.66
2019-02-18T19:20:46.271Z,2.73
2019-02-18T19:23:12.136Z,2.75
2019-02-18T19:25:38.056Z,2.30
2019-02-18T19:28:03.938Z,2.29
2019-02-18T19:31:11.756Z,2.31
2019-02-18T19:33:37.608Z,2.24
2019-02-18T19:36:03.496Z,2.28
2019-02-18T19:38:31.244Z,2.36
2019-02-18T19:40:57.126Z,2.19
2019-02-18T19:43:22.992Z,2.10
2019-02-18T19:45:48.970Z,2.02
2019-02-18T19:48:14.894Z,2.04
2019-02-18T19:50:41.042Z,2.01
2019-02-18T19:53:06.903Z,1.63
2019-02-18T19:55:32.771Z,1.55
2019-02-18T19:57:58.848Z,1.59
2019-02-18T20:00:24.719Z,1.60
2019-02-18T20:02:50.582Z,1.72
2019-02-18T20:05:16.555Z,1.51
2019-02-18T20:07:44.117Z,1.66
2019-02-18T20:10:52.045Z,1.61
2019-02-18T20:13:17.926Z,1.66
2019-02-18T20:15:43.795Z,1.64
2019-02-18T20:18:09.722Z,1.55
2019-02-18T20:20:35.580Z,1.47
2019-02-18T20:23:01.423Z,1.46
2019-02-18T20:25:29.215Z,1.57
2019-02-18T20:27:55.472Z,1.25
2019-02-18T20:30:21.424Z,0.98
2019-02-18T20:32:47.298Z,0.83
2019-02-18T20:35:13.164Z,0.88
2019-02-18T20:37:39.008Z,0.93
2019-02-18T20:40:46.506Z,0.97
2019-02-18T20:43:12.373Z,0.94
2019-02-18T20:45:38.353Z,0.95
2019-02-18T20:48:04.227Z,1.02
2019-02-18T20:50:30.053Z,0.89
2019-02-18T20:52:57.830Z,0.82
2019-02-18T20:55:23.681Z,0.54
2019-02-18T20:57:49.540Z,0.65
2019-02-18T21:00:57.047Z,0.86
2019-02-18T21:03:22.895Z,0.84
2019-02-18T21:05:48.745Z,0.74
2019-02-18T21:08:14.692Z,0.51
2019-02-18T21:10:40.591Z,0.55
2019-02-18T21:13:26.308Z,0.34
2019-02-18T21:15:52.428Z,0.34
2019-02-18T21:18:18.249Z,0.35
2019-02-18T21:20:44.084Z,0.44
2019-02-18T21:23:09.903Z,0.42
2019-02-18T21:25:35.751Z,0.14
2019-02-18T21:28:01.569Z,0.35
2019-02-18T21:30:27.425Z,0.24
2019-02-18T21:32:53.359Z,0.20
2019-02-18T21:35:19.233Z,0.06
2019-02-18T21:37:45.063Z,0.08
2019-02-18T21:40:11.201Z,0.05
2019-02-18T21:42:37.045Z,-0.09
2019-02-18T21:45:44.574Z,0.04
2019-02-18T21:48:10.437Z,0.27
2019-02-18T21:50:36.455Z,0.05
2019-02-18T21:53:02.310Z,-0.07
2019-02-18T21:55:28.145Z,-0.03
2019-02-18T21:57:54.214Z,-0.09
2019-02-18T22:01:01.744Z,-0.01
2019-02-18T22:03:27.609Z,-0.08
2019-02-18T22:05:53.430Z,-0.07
2019-02-18T22:08:19.326Z,-0.17
2019-02-18T22:10:45.221Z,-0.23
2019-02-18T22:13:11.043Z,-0.40
2019-02-18T22:15:38.985Z,-0.46
2019-02-18T22:18:04.836Z,-0.58
2019-02-18T22:20:30.687Z,-0.67
2019-02-18T22:22:56.572Z,-0.63
2019-02-18T22:25:22.462Z,-0.55
2019-02-18T22:27:48.360Z,-0.60
2019-02-18T22:30:14.742Z,-0.68
2019-02-18T22:32:40.699Z,-1.18
2019-02-18T22:35:48.192Z,-1.72
2019-02-18T22:38:14.013Z,-1.26
2019-02-18T22:40:39.874Z,-1.24
2019-02-18T22:43:05.696Z,-1.33
2019-02-18T22:45:31.514Z,-1.34
2019-02-18T22:47:59.420Z,-1.33
2019-02-18T22:50:25.366Z,-1.44
2019-02-18T22:52:51.236Z,-1.56
2019-02-18T22:55:17.158Z,-1.34
2019-02-18T22:57:43.023Z,-1.17
2019-02-18T23:00:50.500Z,-1.24
2019-02-18T23:03:16.621Z,-1.06
2019-02-18T23:05:42.510Z,-1.34
2019-02-18T23:08:08.512Z,-1.03
2019-02-18T23:10:34.463Z,-0.99
2019-02-18T23:13:00.598Z,-1.04
2019-02-18T23:15:26.536Z,-0.94
2019-02-18T23:17:54.257Z,-0.87
2019-02-18T23:20:20.198Z,-0.98
2019-02-18T23:22:46.013Z,-0.86
2019-02-18T23:25:11.912Z,-1.03
2019-02-18T23:27:37.749Z,-1.05
2019-02-18T23:30:45.300Z,-0.98
2019-02-18T23:33:11.179Z,-1.39
2019-02-18T23:35:38.898Z,-1.48
2019-02-18T23:38:04.953Z,-1.18
2019-02-18T23:40:30.938Z,-1.48
2019-02-18T23:42:56.901Z,-1.35
2019-02-18T23:45:22.741Z,-1.26
2019-02-18T23:47:48.585Z,-1.37
2019-02-18T23:50:14.533Z,-1.31
2019-02-18T23:52:40.615Z,-1.21
2019-02-18T23:55:06.577Z,-1.01
2019-02-18T23:57:32.435Z,-1.25
2019-02-18T23:59:58.427Z,-1.48
